createdAt,value
2023-09-13T00:01:11.050Z,13.14
2023-09-13T00:03:38.213Z,13.13
2023-09-13T00:06:05.389Z,13.12
2023-09-13T00:08:32.349Z,13.10
2023-09-13T00:11:06.038Z,13.09
2023-09-13T00:13:34.337Z,13.05
2023-09-13T00:16:02.230Z,13.04
2023-09-13T00:18:29.454Z,13.06
2023-09-13T00:20:56.775Z,13.08
2023-09-13T00:23:23.698Z,13.06
2023-09-13T00:25:50.646Z,13.04
2023-09-13T00:28:17.999Z,13.01
2023-09-13T00:30:45.292Z,12.94
2023-09-13T00:33:12.504Z,12.85
2023-09-13T00:35:39.722Z,12.77
2023-09-13T00:38:08.189Z,12.74
2023-09-13T00:40:35.192Z,12.74
2023-09-13T00:43:02.508Z,12.71
2023-09-13T00:45:31.356Z,12.67
2023-09-13T00:47:59.121Z,12.66
2023-09-13T00:50:34.319Z,12.69
2023-09-13T00:53:08.204Z,12.64
2023-09-13T00:55:35.421Z,12.60
2023-09-13T00:58:03.563Z,12.55
2023-09-13T01:00:30.692Z,12.55
2023-09-13T01:02:57.878Z,12.55
2023-09-13T01:05:24.927Z,12.53
2023-09-13T01:07:52.709Z,12.51
2023-09-13T01:10:21.244Z,12.50
2023-09-13T01:12:48.353Z,12.47
2023-09-13T01:15:15.611Z,12.45
2023-09-13T01:18:23.722Z,12.40
2023-09-13T01:21:12.469Z,12.36
2023-09-13T01:24:02.382Z,12.35
2023-09-13T01:26:55.035Z,12.35
2023-09-13T01:29:23.965Z,12.36
2023-09-13T01:31:50.999Z,12.33
2023-09-13T01:34:18.061Z,12.32
2023-09-13T01:36:45.286Z,12.31
2023-09-13T01:39:12.350Z,12.30
2023-09-13T01:41:47.276Z,12.26
2023-09-13T01:44:16.607Z,12.28
2023-09-13T01:46:46.588Z,12.21
2023-09-13T01:49:16.594Z,12.18
2023-09-13T01:51:44.140Z,12.13
2023-09-13T01:54:11.535Z,12.09
2023-09-13T01:56:38.544Z,11.99
2023-09-13T01:59:05.736Z,11.96
2023-09-13T02:01:32.816Z,11.87
2023-09-13T02:03:59.974Z,11.84
2023-09-13T02:06:27.694Z,11.78
2023-09-13T02:08:54.710Z,11.75
2023-09-13T02:11:21.810Z,11.71
2023-09-13T02:13:52.064Z,11.67
2023-09-13T02:16:22.744Z,11.71
2023-09-13T02:18:49.948Z,11.75
2023-09-13T02:21:17.748Z,11.73
2023-09-13T02:23:46.073Z,11.72
2023-09-13T02:26:23.737Z,11.69
2023-09-13T02:28:52.788Z,11.68
2023-09-13T02:31:28.837Z,11.63
2023-09-13T02:33:56.430Z,11.62
2023-09-13T02:36:23.719Z,11.62
2023-09-13T02:38:51.576Z,11.62
2023-09-13T02:41:18.603Z,11.61
2023-09-13T02:43:45.888Z,11.59
2023-09-13T02:46:13.594Z,11.59
2023-09-13T02:48:40.655Z,11.56
2023-09-13T02:51:16.023Z,11.57
2023-09-13T02:53:43.655Z,11.57
2023-09-13T02:56:11.224Z,11.54
2023-09-13T02:58:38.860Z,11.54
2023-09-13T03:01:12.393Z,11.48
2023-09-13T03:03:42.095Z,11.52
2023-09-13T03:06:19.164Z,11.65
2023-09-13T03:08:46.188Z,11.63
2023-09-13T03:11:15.135Z,11.67
2023-09-13T03:13:44.129Z,11.66
2023-09-13T03:16:29.940Z,11.61
2023-09-13T03:18:58.743Z,11.64
2023-09-13T03:21:32.471Z,11.63
2023-09-13T03:23:59.557Z,11.65
2023-09-13T03:26:27.965Z,11.74
2023-09-13T03:28:57.248Z,11.77
2023-09-13T03:31:26.651Z,11.80
2023-09-13T03:33:57.723Z,11.82
2023-09-13T03:36:28.964Z,11.89
2023-09-13T03:38:57.543Z,11.93
2023-09-13T03:41:27.727Z,12.02
2023-09-13T03:43:55.109Z,12.06
2023-09-13T03:46:22.650Z,12.11
2023-09-13T03:48:54.880Z,12.10
2023-09-13T03:51:22.018Z,12.14
2023-09-13T03:53:49.207Z,12.24
2023-09-13T03:56:16.293Z,12.32
2023-09-13T03:58:43.792Z,12.52
2023-09-13T04:01:11.312Z,13.15
2023-09-13T04:03:38.954Z,14.01
2023-09-13T04:06:06.149Z,14.63
2023-09-13T04:08:33.142Z,15.08
2023-09-13T04:11:00.170Z,15.82
2023-09-13T04:13:27.407Z,16.50
2023-09-13T04:15:54.521Z,17.10
2023-09-13T04:18:21.529Z,17.66
2023-09-13T04:20:48.643Z,18.24
2023-09-13T04:23:16.489Z,18.82
2023-09-13T04:25:44.309Z,19.23
2023-09-13T04:28:13.280Z,19.81
2023-09-13T04:30:41.349Z,20.37
2023-09-13T04:33:09.040Z,20.88
2023-09-13T04:35:36.318Z,21.15
2023-09-13T04:38:04.190Z,21.58
2023-09-13T04:40:31.992Z,22.12
2023-09-13T04:43:09.207Z,22.58
2023-09-13T04:45:37.968Z,23.27
2023-09-13T04:48:05.280Z,23.84
2023-09-13T04:50:32.244Z,24.20
2023-09-13T04:52:59.219Z,24.44
2023-09-13T04:55:28.052Z,24.85
2023-09-13T04:57:55.687Z,25.29
2023-09-13T05:00:25.322Z,25.60
2023-09-13T05:02:52.423Z,26.22
2023-09-13T05:05:19.475Z,26.25
2023-09-13T05:07:46.479Z,26.84
2023-09-13T05:10:13.476Z,27.49
2023-09-13T05:12:40.468Z,27.63
2023-09-13T05:15:08.001Z,27.92
2023-09-13T05:17:35.067Z,28.21
2023-09-13T05:20:02.060Z,28.32
2023-09-13T05:22:30.170Z,28.72
2023-09-13T05:24:57.228Z,29.08
2023-09-13T05:27:24.227Z,29.38
2023-09-13T05:29:53.437Z,29.60
2023-09-13T05:32:20.702Z,29.72
2023-09-13T05:34:47.671Z,30.04
2023-09-13T05:37:14.743Z,30.21
2023-09-13T05:39:41.790Z,30.43
2023-09-13T05:42:08.803Z,30.53
2023-09-13T05:44:35.736Z,30.70
2023-09-13T05:47:02.745Z,30.84
2023-09-13T05:49:31.056Z,31.29
2023-09-13T05:51:58.272Z,31.70
2023-09-13T05:54:26.170Z,32.15
2023-09-13T05:56:58.863Z,32.03
2023-09-13T05:59:25.879Z,32.14
2023-09-13T06:01:53.089Z,32.05
2023-09-13T06:04:20.182Z,32.75
2023-09-13T06:06:47.183Z,32.96
2023-09-13T06:09:14.175Z,32.95
2023-09-13T06:11:41.281Z,32.24
2023-09-13T06:14:12.221Z,32.45
2023-09-13T06:16:39.641Z,32.67
2023-09-13T06:19:06.853Z,32.10
2023-09-13T06:21:33.898Z,32.53
2023-09-13T06:24:00.974Z,32.52
2023-09-13T06:26:27.958Z,33.10
2023-09-13T06:28:55.557Z,32.97
2023-09-13T06:31:30.751Z,33.50
2023-09-13T06:34:17.558Z,33.84
2023-09-13T06:36:50.598Z,34.16
2023-09-13T06:39:20.254Z,34.18
2023-09-13T06:41:47.351Z,34.14
2023-09-13T06:44:30.186Z,34.99
2023-09-13T06:47:05.186Z,35.38
2023-09-13T06:49:32.671Z,35.42
2023-09-13T06:52:01.348Z,35.52
2023-09-13T06:54:32.710Z,35.85
2023-09-13T06:57:02.558Z,35.17
2023-09-13T06:59:43.212Z,34.81
2023-09-13T07:02:30.381Z,34.29
2023-09-13T07:07:28.996Z,35.02
2023-09-13T07:09:55.939Z,35.84
2023-09-13T07:12:27.394Z,36.00
2023-09-13T07:14:56.436Z,36.73
2023-09-13T07:17:23.493Z,37.06
2023-09-13T07:19:50.627Z,37.24
2023-09-13T07:22:18.242Z,37.14
2023-09-13T07:24:45.504Z,37.91
2023-09-13T07:27:12.597Z,38.60
2023-09-13T07:29:39.596Z,38.75
2023-09-13T07:32:07.352Z,38.72
2023-09-13T07:34:34.381Z,37.68
2023-09-13T07:37:01.335Z,38.35
2023-09-13T07:39:29.640Z,37.38
2023-09-13T07:41:56.953Z,37.10
2023-09-13T07:44:23.909Z,37.31
2023-09-13T07:46:50.912Z,38.04
2023-09-13T07:49:17.955Z,37.32
2023-09-13T07:51:45.006Z,37.33
2023-09-13T07:54:11.990Z,37.25
2023-09-13T07:56:38.998Z,37.22
2023-09-13T07:59:08.846Z,36.77
2023-09-13T08:01:36.040Z,37.33
2023-09-13T08:04:03.187Z,37.41
2023-09-13T08:06:30.277Z,37.02
2023-09-13T08:09:00.784Z,36.00
2023-09-13T08:11:31.547Z,36.18
2023-09-13T08:13:58.776Z,36.25
2023-09-13T08:16:26.449Z,35.60
2023-09-13T08:18:53.471Z,35.29
2023-09-13T08:21:20.409Z,35.46
2023-09-13T08:23:47.466Z,35.72
2023-09-13T08:26:27.165Z,35.95
2023-09-13T08:28:55.580Z,36.12
2023-09-13T08:31:25.362Z,35.92
2023-09-13T08:33:55.676Z,35.73
2023-09-13T08:36:22.749Z,35.95
2023-09-13T08:38:49.724Z,35.79
2023-09-13T08:41:16.884Z,36.91
2023-09-13T08:43:45.549Z,37.75
2023-09-13T08:46:14.449Z,38.10
2023-09-13T08:48:43.526Z,37.97
2023-09-13T08:51:12.258Z,37.21
2023-09-13T08:53:40.825Z,36.36
2023-09-13T08:56:09.109Z,35.37
2023-09-13T08:58:36.705Z,35.51
2023-09-13T09:01:07.511Z,36.26
2023-09-13T09:03:36.273Z,35.98
2023-09-13T09:06:07.285Z,35.95
2023-09-13T09:08:41.528Z,36.31
2023-09-13T09:11:10.190Z,36.97
2023-09-13T09:13:39.991Z,37.35
2023-09-13T09:16:08.872Z,36.51
2023-09-13T09:18:39.008Z,36.13
2023-09-13T09:21:06.868Z,35.37
2023-09-13T09:23:36.308Z,35.46
2023-09-13T09:26:06.449Z,35.29
2023-09-13T09:28:34.231Z,34.93
2023-09-13T09:31:03.493Z,34.82
2023-09-13T09:33:31.839Z,35.63
2023-09-13T09:36:02.260Z,35.77
2023-09-13T09:38:30.266Z,35.68
2023-09-13T09:40:59.612Z,35.28
2023-09-13T09:43:27.216Z,33.93
2023-09-13T09:45:54.809Z,32.83
2023-09-13T09:48:22.376Z,32.00
2023-09-13T09:50:54.665Z,31.86
2023-09-13T09:53:23.843Z,30.83
2023-09-13T09:55:52.762Z,30.84
2023-09-13T09:58:19.886Z,30.81
2023-09-13T10:00:48.834Z,30.90
2023-09-13T10:03:20.455Z,29.79
2023-09-13T10:05:54.318Z,29.28
2023-09-13T10:08:36.096Z,28.97
2023-09-13T10:11:03.257Z,29.00
2023-09-13T10:13:36.234Z,28.61
2023-09-13T10:16:04.097Z,28.31
2023-09-13T10:18:39.918Z,27.90
2023-09-13T10:21:08.201Z,28.31
2023-09-13T10:23:43.423Z,28.26
2023-09-13T10:26:12.528Z,27.47
2023-09-13T10:28:43.529Z,26.58
2023-09-13T10:31:18.000Z,26.66
2023-09-13T10:33:47.340Z,26.39
2023-09-13T10:36:23.869Z,25.89
2023-09-13T10:39:02.242Z,25.64
2023-09-13T10:41:34.685Z,25.85
2023-09-13T10:44:05.936Z,25.74
2023-09-13T10:46:37.361Z,25.55
2023-09-13T10:49:04.504Z,24.77
2023-09-13T10:51:33.288Z,24.38
2023-09-13T10:54:03.524Z,24.22
2023-09-13T10:56:31.633Z,24.29
2023-09-13T10:59:01.444Z,23.97
2023-09-13T11:01:29.054Z,23.76
2023-09-13T11:03:56.523Z,23.51
2023-09-13T11:06:26.299Z,23.31
2023-09-13T11:08:53.325Z,23.14
2023-09-13T11:11:25.084Z,23.31
2023-09-13T11:13:56.948Z,23.55
2023-09-13T11:16:24.717Z,23.66
2023-09-13T11:18:54.211Z,23.58
2023-09-13T11:21:30.201Z,23.43
2023-09-13T11:24:03.977Z,23.17
2023-09-13T11:26:50.203Z,22.84
2023-09-13T11:29:29.931Z,22.73
2023-09-13T11:32:00.432Z,22.61
2023-09-13T11:34:29.016Z,22.42
2023-09-13T11:36:58.949Z,22.26
2023-09-13T11:39:26.086Z,21.90
2023-09-13T11:41:55.277Z,21.68
2023-09-13T11:44:33.716Z,21.62
2023-09-13T11:47:02.528Z,21.61
2023-09-13T11:52:19.016Z,21.30
2023-09-13T11:57:57.252Z,21.15
2023-09-13T12:00:28.882Z,21.00
2023-09-13T12:02:57.770Z,20.89
2023-09-13T12:05:39.698Z,20.90
2023-09-13T12:08:26.968Z,20.68
2023-09-13T12:11:08.661Z,20.76
2023-09-13T12:14:11.153Z,20.69
2023-09-13T12:16:40.354Z,20.62
2023-09-13T12:19:08.598Z,20.56
2023-09-13T12:21:35.905Z,20.55
2023-09-13T12:24:04.363Z,20.49
2023-09-13T12:26:31.518Z,20.40
2023-09-13T12:28:58.545Z,20.32
2023-09-13T12:31:25.783Z,20.27
2023-09-13T12:33:53.537Z,20.31
2023-09-13T12:36:24.100Z,20.31
2023-09-13T12:38:51.424Z,20.30
2023-09-13T12:41:23.401Z,20.31
2023-09-13T12:43:52.037Z,20.31
2023-09-13T12:46:20.973Z,20.36
2023-09-13T12:48:50.958Z,20.39
2023-09-13T12:51:32.480Z,20.40
2023-09-13T12:54:01.271Z,20.40
2023-09-13T12:56:28.626Z,20.36
2023-09-13T12:58:57.343Z,20.40
2023-09-13T13:01:25.859Z,20.42
2023-09-13T13:04:07.561Z,20.44
2023-09-13T13:06:53.739Z,20.50
2023-09-13T13:09:23.933Z,20.50
2023-09-13T13:11:51.352Z,20.33
2023-09-13T13:14:20.989Z,20.23
2023-09-13T13:17:14.040Z,20.11
2023-09-13T13:22:32.086Z,20.12
2023-09-13T13:24:59.240Z,20.13
2023-09-13T13:27:29.991Z,20.12
2023-09-13T13:29:57.184Z,20.02
2023-09-13T13:32:25.615Z,19.91
2023-09-13T13:34:52.714Z,19.88
2023-09-13T13:37:19.924Z,19.88
2023-09-13T13:39:46.991Z,19.80
2023-09-13T13:42:14.195Z,19.77
2023-09-13T13:44:42.477Z,19.66
2023-09-13T13:47:10.465Z,19.57
2023-09-13T13:49:38.179Z,19.54
2023-09-13T13:52:05.642Z,19.54
2023-09-13T13:54:32.714Z,19.47
2023-09-13T13:57:01.120Z,19.42
2023-09-13T13:59:28.215Z,19.40
2023-09-13T14:01:55.439Z,19.37
2023-09-13T14:04:22.449Z,19.30
2023-09-13T14:06:49.559Z,19.25
2023-09-13T14:09:20.141Z,19.23
2023-09-13T14:11:47.696Z,19.16
2023-09-13T14:14:18.663Z,19.13
2023-09-13T14:16:50.114Z,19.11
2023-09-13T14:19:18.066Z,19.06
2023-09-13T14:21:45.304Z,19.03
2023-09-13T14:24:12.436Z,18.98
2023-09-13T14:26:42.843Z,19.00
2023-09-13T14:29:10.502Z,18.94
2023-09-13T14:31:39.015Z,18.93
2023-09-13T14:34:07.597Z,18.92
2023-09-13T14:36:35.070Z,18.87
2023-09-13T14:39:02.176Z,18.83
2023-09-13T14:41:30.313Z,18.81
2023-09-13T14:43:57.257Z,18.76
2023-09-13T14:46:24.338Z,18.74
2023-09-13T14:48:54.357Z,18.73
2023-09-13T14:51:24.024Z,18.66
2023-09-13T14:53:51.030Z,18.64
2023-09-13T14:56:18.017Z,18.60
2023-09-13T14:58:45.225Z,18.59
2023-09-13T15:01:13.526Z,18.57
2023-09-13T15:03:49.573Z,18.51
2023-09-13T15:06:19.491Z,18.53
2023-09-13T15:08:50.493Z,18.55
2023-09-13T15:11:18.039Z,18.54
2023-09-13T15:13:46.968Z,18.52
2023-09-13T15:16:14.875Z,18.37
2023-09-13T15:18:42.103Z,18.42
2023-09-13T15:21:11.422Z,18.35
2023-09-13T15:23:38.636Z,18.35
2023-09-13T15:26:05.685Z,18.29
2023-09-13T15:28:32.779Z,18.22
2023-09-13T15:30:59.903Z,18.23
2023-09-13T15:33:27.212Z,18.18
2023-09-13T15:35:54.427Z,18.17
2023-09-13T15:38:21.580Z,18.08
2023-09-13T15:40:48.732Z,18.12
2023-09-13T15:43:16.728Z,18.07
2023-09-13T15:45:44.092Z,18.04
2023-09-13T15:48:11.150Z,17.95
2023-09-13T15:50:38.330Z,17.91
2023-09-13T15:53:05.343Z,17.95
2023-09-13T15:55:34.457Z,17.92
2023-09-13T15:58:02.526Z,17.88
2023-09-13T16:00:29.528Z,17.82
2023-09-13T16:02:56.691Z,17.76
2023-09-13T16:05:24.808Z,17.73
2023-09-13T16:07:51.804Z,17.66
2023-09-13T16:10:18.805Z,17.59
2023-09-13T16:12:47.270Z,17.54
2023-09-13T16:15:14.346Z,17.47
2023-09-13T16:17:41.436Z,17.45
2023-09-13T16:20:10.007Z,17.42
2023-09-13T16:22:37.068Z,17.41
2023-09-13T16:25:07.178Z,17.36
2023-09-13T16:27:34.920Z,17.33
2023-09-13T16:30:05.229Z,17.33
2023-09-13T16:32:34.039Z,17.28
2023-09-13T16:35:01.078Z,17.28
2023-09-13T16:37:28.097Z,17.27
2023-09-13T16:39:55.158Z,17.28
2023-09-13T16:43:09.485Z,17.26
2023-09-13T16:45:50.537Z,17.20
2023-09-13T16:48:32.062Z,17.15
2023-09-13T16:51:01.975Z,17.12
2023-09-13T16:53:29.024Z,17.10
2023-09-13T16:55:56.076Z,17.09
2023-09-13T16:58:23.121Z,17.08
2023-09-13T17:00:50.585Z,17.08
2023-09-13T17:03:17.746Z,17.02
2023-09-13T17:05:44.870Z,17.00
2023-09-13T17:08:11.952Z,16.99
2023-09-13T17:10:38.904Z,16.96
2023-09-13T17:13:05.929Z,16.94
2023-09-13T17:15:47.031Z,16.96
2023-09-13T17:18:14.307Z,16.96
2023-09-13T17:20:41.765Z,16.93
2023-09-13T17:23:09.689Z,16.89
2023-09-13T17:25:37.665Z,16.87
2023-09-13T17:28:05.264Z,16.84
2023-09-13T17:30:34.558Z,16.85
2023-09-13T17:33:02.539Z,16.86
2023-09-13T17:35:29.989Z,16.83
2023-09-13T17:38:00.066Z,16.83
2023-09-13T17:40:28.475Z,16.82
2023-09-13T17:42:56.405Z,16.79
2023-09-13T17:45:23.602Z,16.77
2023-09-13T17:47:51.540Z,16.72
2023-09-13T17:50:19.386Z,16.68
2023-09-13T17:52:46.355Z,16.66
2023-09-13T17:55:13.380Z,16.64
2023-09-13T17:57:40.412Z,16.60
2023-09-13T18:00:08.148Z,16.56
2023-09-13T18:02:36.494Z,16.54
2023-09-13T18:05:04.158Z,16.50
2023-09-13T18:07:32.385Z,16.48
2023-09-13T18:09:59.670Z,16.45
2023-09-13T18:12:27.094Z,16.42
2023-09-13T18:14:57.099Z,16.41
2023-09-13T18:17:24.515Z,16.42
2023-09-13T18:19:51.549Z,16.40
2023-09-13T18:22:18.560Z,16.41
2023-09-13T18:24:45.626Z,16.36
2023-09-13T18:27:13.682Z,16.37
2023-09-13T18:29:43.211Z,16.35
2023-09-13T18:32:10.401Z,16.31
2023-09-13T18:34:41.460Z,16.24
2023-09-13T18:37:09.509Z,16.19
2023-09-13T18:39:36.852Z,16.12
2023-09-13T18:42:05.221Z,16.06
2023-09-13T18:44:32.865Z,16.00
2023-09-13T18:46:59.919Z,16.01
2023-09-13T18:49:28.924Z,15.97
2023-09-13T18:51:55.919Z,15.97
2023-09-13T18:54:23.096Z,15.98
2023-09-13T18:56:50.516Z,15.94
2023-09-13T18:59:17.557Z,15.93
2023-09-13T19:01:45.472Z,15.95
2023-09-13T19:04:12.640Z,15.97
2023-09-13T19:06:39.637Z,15.94
2023-09-13T19:09:06.672Z,15.95
2023-09-13T19:11:35.916Z,15.91
2023-09-13T19:14:02.935Z,15.94
2023-09-13T19:16:32.318Z,15.93
2023-09-13T19:19:01.253Z,15.90
2023-09-13T19:21:28.347Z,15.86
2023-09-13T19:23:55.283Z,15.80
2023-09-13T19:26:23.398Z,15.75
2023-09-13T19:28:50.490Z,15.71
2023-09-13T19:31:18.098Z,15.66
2023-09-13T19:33:45.230Z,15.67
2023-09-13T19:36:12.271Z,15.65
2023-09-13T19:38:40.027Z,15.65
2023-09-13T19:41:07.140Z,15.67
2023-09-13T19:43:36.579Z,15.63
2023-09-13T19:46:04.568Z,15.64
2023-09-13T19:48:34.378Z,15.62
2023-09-13T19:51:14.106Z,15.61
2023-09-13T19:53:42.120Z,15.60
2023-09-13T19:56:10.659Z,15.56
2023-09-13T19:58:48.605Z,15.55
2023-09-13T20:01:17.321Z,15.49
2023-09-13T20:03:44.742Z,15.50
2023-09-13T20:06:22.093Z,15.48
2023-09-13T20:08:49.859Z,15.45
2023-09-13T20:11:36.150Z,15.40
2023-09-13T20:14:05.758Z,15.31
2023-09-13T20:16:35.559Z,15.34
2023-09-13T20:19:12.073Z,15.17
2023-09-13T20:21:39.131Z,15.23
2023-09-13T20:24:06.373Z,15.29
2023-09-13T20:26:36.463Z,15.21
2023-09-13T20:29:03.504Z,15.20
2023-09-13T20:31:32.568Z,15.15
2023-09-13T20:33:59.760Z,15.11
2023-09-13T20:36:26.820Z,15.11
2023-09-13T20:38:53.831Z,15.10
2023-09-13T20:41:20.970Z,15.04
2023-09-13T20:43:47.957Z,15.07
2023-09-13T20:46:15.096Z,15.06
2023-09-13T20:48:42.196Z,15.01
2023-09-13T20:51:09.270Z,15.00
2023-09-13T20:53:36.327Z,14.98
2023-09-13T20:56:03.595Z,14.94
2023-09-13T20:58:30.649Z,14.91
2023-09-13T21:00:57.710Z,14.90
2023-09-13T21:03:25.009Z,14.88
2023-09-13T21:05:56.077Z,14.91
2023-09-13T21:08:23.404Z,14.89
2023-09-13T21:10:50.461Z,14.87
2023-09-13T21:13:17.512Z,14.83
2023-09-13T21:15:44.474Z,14.80
2023-09-13T21:18:11.469Z,14.78
2023-09-13T21:20:38.460Z,14.75
2023-09-13T21:23:08.870Z,14.74
2023-09-13T21:25:35.947Z,14.69
2023-09-13T21:28:04.868Z,14.66
2023-09-13T21:30:32.022Z,14.61
2023-09-13T21:32:59.134Z,14.60
2023-09-13T21:35:26.192Z,14.56
2023-09-13T21:37:53.172Z,14.56
2023-09-13T21:40:20.154Z,14.58
2023-09-13T21:42:47.217Z,14.58
2023-09-13T21:45:14.232Z,14.57
2023-09-13T21:47:41.226Z,14.56
2023-09-13T21:50:08.573Z,14.57
2023-09-13T21:52:35.523Z,14.50
2023-09-13T21:55:02.680Z,14.40
2023-09-13T21:57:30.910Z,14.32
2023-09-13T21:59:58.219Z,14.27
2023-09-13T22:02:25.300Z,14.21
2023-09-13T22:04:52.320Z,14.17
2023-09-13T22:07:19.321Z,14.15
2023-09-13T22:09:49.314Z,14.13
2023-09-13T22:12:16.426Z,14.14
2023-09-13T22:14:43.481Z,14.10
2023-09-13T22:17:10.512Z,14.12
2023-09-13T22:19:37.461Z,14.15
2023-09-13T22:22:04.688Z,14.14
2023-09-13T22:24:32.974Z,14.13
2023-09-13T22:27:00.023Z,14.13
2023-09-13T22:29:27.071Z,14.10
2023-09-13T22:31:54.111Z,14.04
2023-09-13T22:34:21.160Z,14.00
2023-09-13T22:36:48.818Z,13.97
2023-09-13T22:39:16.199Z,13.94
2023-09-13T22:41:44.181Z,13.88
2023-09-13T22:44:11.482Z,13.87
2023-09-13T22:46:39.080Z,13.79
2023-09-13T22:49:06.232Z,13.78
2023-09-13T22:51:33.384Z,13.78
2023-09-13T22:54:00.530Z,13.73
2023-09-13T22:56:27.612Z,13.72
2023-09-13T22:58:55.787Z,13.72
2023-09-13T23:01:22.942Z,13.74
2023-09-13T23:03:50.251Z,13.72
2023-09-13T23:06:17.379Z,13.69
2023-09-13T23:08:44.727Z,13.70
2023-09-13T23:11:12.126Z,13.69
2023-09-13T23:13:39.089Z,13.69
2023-09-13T23:16:07.389Z,13.66
2023-09-13T23:18:37.767Z,13.63
2023-09-13T23:21:05.352Z,13.60
2023-09-13T23:23:32.532Z,13.59
2023-09-13T23:26:04.541Z,13.57
2023-09-13T23:28:32.017Z,13.56
2023-09-13T23:31:13.672Z,13.57
2023-09-13T23:33:42.491Z,13.56
2023-09-13T23:36:10.832Z,13.53
2023-09-13T23:38:42.044Z,13.58
2023-09-13T23:41:10.988Z,13.53
2023-09-13T23:43:39.326Z,13.54
2023-09-13T23:46:08.406Z,13.56
2023-09-13T23:48:39.285Z,13.57
2023-09-13T23:51:08.452Z,13.56
2023-09-13T23:53:36.358Z,13.49
2023-09-13T23:56:07.076Z,13.48
2023-09-13T23:58:34.337Z,13.45
